createdAt,value
2023-04-24T00:02:23.224Z,2.00
2023-04-24T00:04:50.269Z,2.30
2023-04-24T00:07:21.299Z,2.00
2023-04-24T00:09:47.896Z,2.37
2023-04-24T00:12:14.507Z,1.50
2023-04-24T00:14:41.452Z,2.50
2023-04-24T00:17:08.198Z,2.13
2023-04-24T00:19:34.696Z,2.30
2023-04-24T00:22:01.415Z,2.80
2023-04-24T00:24:28.006Z,2.37
2023-04-24T00:26:54.536Z,2.40
2023-04-24T00:29:21.126Z,3.13
2023-04-24T00:31:47.767Z,3.90
2023-04-24T00:34:14.530Z,3.70
2023-04-24T00:36:41.568Z,4.00
2023-04-24T00:39:09.631Z,4.30
2023-04-24T00:41:36.238Z,6.70
2023-04-24T00:44:02.764Z,5.40
2023-04-24T00:46:29.501Z,5.30
2023-04-24T00:48:57.389Z,6.17
2023-04-24T00:51:25.506Z,5.37
2023-04-24T00:53:52.970Z,5.70
2023-04-24T00:56:19.683Z,5.37
2023-04-24T00:58:47.269Z,6.00
2023-04-24T01:01:14.143Z,6.33
2023-04-24T01:03:41.707Z,6.10
2023-04-24T01:06:08.899Z,6.37
2023-04-24T01:08:35.850Z,7.10
2023-04-24T01:11:05.012Z,7.07
2023-04-24T01:13:32.581Z,7.80
2023-04-24T01:15:59.203Z,7.30
2023-04-24T01:18:28.680Z,8.73
2023-04-24T01:20:58.536Z,9.30
2023-04-24T01:23:25.448Z,7.77
2023-04-24T01:25:52.394Z,9.77
2023-04-24T01:28:19.071Z,7.67
2023-04-24T01:30:45.612Z,10.07
2023-04-24T01:33:12.383Z,8.90
2023-04-24T01:35:39.222Z,8.67
2023-04-24T01:38:06.643Z,9.50
2023-04-24T01:40:33.531Z,9.17
2023-04-24T01:43:00.190Z,10.67
2023-04-24T01:45:26.684Z,10.60
2023-04-24T01:47:53.369Z,11.60
2023-04-24T01:50:19.966Z,10.40
2023-04-24T01:52:46.524Z,10.43
2023-04-24T01:55:13.077Z,11.73
2023-04-24T01:57:40.653Z,10.90
2023-04-24T02:00:08.006Z,7.57
2023-04-24T02:02:41.491Z,9.60
2023-04-24T02:05:08.946Z,11.80
2023-04-24T02:07:37.540Z,9.87
2023-04-24T02:10:05.114Z,12.07
2023-04-24T02:12:33.038Z,10.60
2023-04-24T02:15:00.598Z,10.47
2023-04-24T02:17:27.445Z,12.63
2023-04-24T02:19:53.928Z,11.03
2023-04-24T02:22:20.700Z,11.00
2023-04-24T02:24:47.370Z,10.70
2023-04-24T02:27:16.268Z,9.53
2023-04-24T02:29:43.007Z,9.30
2023-04-24T02:32:13.068Z,10.17
2023-04-24T02:34:39.836Z,8.27
2023-04-24T02:37:06.348Z,8.67
2023-04-24T02:39:32.846Z,9.90
2023-04-24T02:41:59.608Z,10.37
2023-04-24T02:44:26.092Z,11.60
2023-04-24T02:46:52.680Z,9.43
2023-04-24T02:49:19.217Z,10.73
2023-04-24T02:51:45.789Z,11.30
2023-04-24T02:54:12.322Z,10.00
2023-04-24T02:56:38.865Z,8.40
2023-04-24T02:59:07.410Z,9.93
2023-04-24T03:01:34.616Z,11.27
2023-04-24T03:04:01.608Z,10.13
2023-04-24T03:06:29.097Z,11.03
2023-04-24T03:08:55.795Z,11.40
2023-04-24T03:11:22.352Z,10.50
2023-04-24T03:13:49.005Z,10.40
2023-04-24T03:16:15.905Z,11.50
2023-04-24T03:18:42.411Z,10.30
2023-04-24T03:21:09.818Z,11.43
2023-04-24T03:23:36.468Z,9.80
2023-04-24T03:26:03.298Z,11.20
2023-04-24T03:28:30.834Z,9.33
2023-04-24T03:31:00.968Z,11.80
2023-04-24T03:33:31.922Z,10.47
2023-04-24T03:36:01.977Z,11.20
2023-04-24T03:38:36.174Z,9.83
2023-04-24T03:41:21.434Z,12.80
2023-04-24T03:44:06.948Z,10.07
2023-04-24T03:46:33.914Z,11.47
2023-04-24T03:49:02.050Z,10.87
2023-04-24T03:51:33.036Z,9.43
2023-04-24T03:54:11.631Z,11.67
2023-04-24T03:56:40.209Z,10.70
2023-04-24T03:59:06.918Z,9.80
2023-04-24T04:01:38.014Z,9.40
2023-04-24T04:04:13.373Z,10.83
2023-04-24T04:06:40.512Z,13.10
2023-04-24T04:09:08.307Z,10.53
2023-04-24T04:11:36.353Z,11.37
2023-04-24T04:14:03.188Z,9.30
2023-04-24T04:16:30.261Z,9.07
2023-04-24T04:19:04.224Z,6.77
2023-04-24T04:21:32.283Z,8.30
2023-04-24T04:24:10.655Z,9.67
2023-04-24T04:26:41.635Z,10.57
2023-04-24T04:29:11.212Z,11.07
2023-04-24T04:31:41.747Z,9.33
2023-04-24T04:34:12.698Z,9.80
2023-04-24T04:36:41.153Z,9.60
2023-04-24T04:39:29.312Z,8.40
2023-04-24T04:42:01.674Z,7.33
2023-04-24T04:44:37.405Z,7.90
2023-04-24T04:47:06.462Z,9.77
2023-04-24T04:49:35.758Z,7.57
2023-04-24T04:52:02.534Z,9.17
2023-04-24T04:54:29.317Z,8.37
2023-04-24T04:56:58.139Z,7.33
2023-04-24T04:59:24.785Z,6.90
2023-04-24T05:01:57.162Z,9.00
2023-04-24T05:04:24.121Z,8.00
2023-04-24T05:06:52.393Z,9.60
2023-04-24T05:09:19.621Z,6.47
2023-04-24T05:11:53.739Z,8.17
2023-04-24T05:14:21.982Z,7.47
2023-04-24T05:16:49.367Z,8.20
2023-04-24T05:19:18.444Z,5.63
2023-04-24T05:21:46.422Z,5.87
2023-04-24T05:24:12.965Z,8.30
2023-04-24T05:26:58.228Z,8.87
2023-04-24T05:29:31.881Z,8.47
2023-04-24T05:31:59.068Z,7.00
2023-04-24T05:34:26.174Z,6.00
2023-04-24T05:36:56.038Z,6.20
2023-04-24T05:39:22.580Z,6.87
2023-04-24T05:41:51.878Z,5.50
2023-04-24T05:44:18.428Z,5.60
2023-04-24T05:46:45.139Z,5.93
2023-04-24T05:49:12.374Z,7.07
2023-04-24T05:51:40.465Z,5.47
2023-04-24T05:54:07.216Z,7.50
2023-04-24T05:56:33.920Z,7.37
2023-04-24T05:59:04.439Z,6.90
2023-04-24T06:01:32.562Z,7.10
2023-04-24T06:04:07.981Z,7.43
2023-04-24T06:06:35.957Z,6.70
2023-04-24T06:09:09.938Z,7.00
2023-04-24T06:11:43.648Z,6.20
2023-04-24T06:14:12.829Z,6.17
2023-04-24T06:16:41.624Z,5.53
2023-04-24T06:19:31.965Z,4.20
2023-04-24T06:21:59.953Z,5.07
2023-04-24T06:24:30.953Z,4.63
2023-04-24T06:27:00.500Z,3.57
2023-04-24T06:29:27.384Z,3.80
2023-04-24T06:31:54.977Z,3.80
2023-04-24T06:34:24.094Z,4.77
2023-04-24T06:36:50.919Z,4.03
2023-04-24T06:39:17.548Z,4.07
2023-04-24T06:41:44.226Z,4.70
2023-04-24T06:44:19.620Z,4.67
2023-04-24T06:46:46.328Z,3.80
2023-04-24T06:49:13.123Z,4.00
2023-04-24T06:51:47.248Z,4.30
2023-04-24T06:54:13.868Z,2.60
2023-04-24T06:56:40.632Z,2.60
2023-04-24T06:59:07.282Z,3.83
2023-04-24T07:01:34.241Z,4.23
2023-04-24T07:04:01.217Z,4.10
2023-04-24T07:06:28.518Z,6.13
2023-04-24T07:08:55.315Z,5.67
2023-04-24T07:11:21.909Z,4.67
2023-04-24T07:13:52.411Z,2.53
2023-04-24T07:16:19.531Z,3.13
2023-04-24T07:18:46.348Z,3.67
2023-04-24T07:21:14.112Z,3.10
2023-04-24T07:23:42.388Z,3.67
2023-04-24T07:26:11.185Z,3.43
2023-04-24T07:28:38.563Z,2.83
2023-04-24T07:31:05.834Z,3.53
2023-04-24T07:33:32.815Z,3.10
2023-04-24T07:36:04.328Z,3.70
2023-04-24T07:38:31.329Z,4.50
2023-04-24T07:41:00.243Z,3.50
2023-04-24T07:43:29.714Z,4.40
2023-04-24T07:45:56.825Z,3.30
2023-04-24T07:48:40.801Z,2.90
2023-04-24T07:51:12.230Z,2.87
2023-04-24T07:53:48.587Z,3.17
2023-04-24T07:56:28.059Z,3.60
2023-04-24T07:59:19.383Z,3.87
2023-04-24T08:01:46.801Z,3.40
2023-04-24T08:04:13.951Z,3.27
2023-04-24T08:06:41.493Z,2.97
2023-04-24T08:09:08.930Z,4.53
2023-04-24T08:11:35.874Z,3.50
2023-04-24T08:14:04.695Z,4.67
2023-04-24T08:16:39.523Z,4.87
2023-04-24T08:19:31.699Z,4.90
2023-04-24T08:21:58.405Z,4.13
2023-04-24T08:24:25.305Z,5.20
2023-04-24T08:27:20.810Z,5.60
2023-04-24T08:29:47.816Z,6.80
2023-04-24T08:32:14.560Z,5.30
2023-04-24T08:34:41.512Z,6.60
2023-04-24T08:37:16.459Z,6.10
2023-04-24T08:39:43.880Z,7.67
2023-04-24T08:42:40.101Z,7.23
2023-04-24T08:45:07.381Z,7.10
2023-04-24T08:47:41.880Z,7.27
2023-04-24T08:50:18.118Z,7.63
2023-04-24T08:52:44.894Z,6.90
2023-04-24T08:55:15.850Z,9.80
2023-04-24T08:57:42.990Z,7.10
2023-04-24T09:00:14.492Z,6.77
2023-04-24T09:02:52.987Z,6.43
2023-04-24T09:05:21.926Z,6.03
2023-04-24T09:08:17.694Z,10.73
2023-04-24T09:11:17.799Z,7.27
2023-04-24T09:18:11.360Z,6.80
2023-04-24T09:27:18.372Z,7.07
2023-04-24T09:30:19.651Z,6.80
2023-04-24T09:32:47.018Z,5.77
2023-04-24T09:35:17.813Z,4.20
2023-04-24T09:37:52.593Z,5.30
2023-04-24T09:40:50.167Z,5.47
2023-04-24T09:45:45.824Z,5.27
2023-04-24T09:47:19.779Z,6.50
2023-04-24T09:59:17.618Z,5.87
2023-04-24T10:02:37.717Z,6.47
2023-04-24T10:08:36.393Z,5.40
2023-04-24T10:11:29.234Z,4.53
2023-04-24T10:14:45.878Z,6.73
2023-04-24T10:17:51.417Z,5.40
2023-04-24T10:20:31.938Z,4.50
2023-04-24T10:28:19.460Z,5.53
2023-04-24T10:31:18.597Z,4.37
2023-04-24T10:33:51.016Z,4.80
2023-04-24T10:36:23.470Z,6.57
2023-04-24T10:38:51.187Z,4.30
2023-04-24T10:44:14.015Z,4.13
2023-04-24T10:49:31.021Z,4.70
2023-04-24T10:52:01.929Z,5.63
2023-04-24T10:54:35.038Z,5.00
2023-04-24T10:57:35.844Z,6.10
2023-04-24T11:00:14.745Z,4.50
2023-04-24T11:02:44.753Z,4.90
2023-04-24T11:05:12.096Z,4.43
2023-04-24T11:07:59.439Z,6.20
2023-04-24T11:10:28.567Z,5.37
2023-04-24T11:13:10.975Z,4.10
2023-04-24T11:16:09.666Z,4.90
2023-04-24T11:18:41.194Z,5.30
2023-04-24T11:21:11.911Z,5.13
2023-04-24T11:23:38.542Z,5.73
2023-04-24T11:26:23.173Z,5.03
2023-04-24T11:28:52.924Z,5.87
2023-04-24T11:31:35.334Z,5.90
2023-04-24T11:34:12.063Z,4.50
2023-04-24T11:36:38.987Z,7.13
2023-04-24T11:39:06.159Z,6.30
2023-04-24T11:41:33.144Z,3.90
2023-04-24T11:43:59.882Z,4.03
2023-04-24T12:04:12.171Z,4.97
2023-04-24T12:06:39.220Z,4.70
2023-04-24T12:09:17.467Z,4.90
2023-04-24T12:11:53.992Z,5.30
2023-04-24T12:14:20.816Z,5.20
2023-04-24T12:16:49.208Z,4.97
2023-04-24T12:19:19.900Z,11.43
2023-04-24T12:22:02.179Z,3.50
2023-04-24T12:24:35.966Z,4.80
2023-04-24T12:27:03.229Z,4.57
2023-04-24T12:29:29.820Z,8.20
2023-04-24T12:31:56.488Z,5.87
2023-04-24T12:34:24.557Z,5.10
2023-04-24T12:36:51.489Z,6.33
2023-04-24T12:39:19.383Z,5.00
2023-04-24T12:42:00.934Z,4.53
2023-04-24T12:44:32.019Z,5.90
2023-04-24T12:46:58.908Z,4.90
2023-04-24T12:49:25.794Z,5.20
2023-04-24T12:51:59.168Z,5.10
2023-04-24T12:54:25.990Z,3.97
2023-04-24T12:56:52.744Z,4.50
2023-04-24T12:59:19.363Z,4.40
2023-04-24T13:01:46.062Z,4.07
2023-04-24T13:04:12.889Z,4.83
2023-04-24T13:06:42.750Z,4.40
2023-04-24T13:09:09.538Z,6.00
2023-04-24T13:11:45.332Z,5.27
2023-04-24T13:14:12.077Z,4.50
2023-04-24T13:16:38.874Z,4.87
2023-04-24T13:19:05.674Z,4.83
2023-04-24T13:21:32.916Z,5.90
2023-04-24T13:24:00.173Z,4.10
2023-04-24T13:26:26.796Z,3.90
2023-04-24T13:28:54.750Z,4.30
2023-04-24T13:31:21.401Z,4.43
2023-04-24T13:33:48.153Z,6.83
2023-04-24T13:36:14.914Z,3.70
2023-04-24T13:38:41.710Z,5.00
2023-04-24T13:41:08.229Z,7.60
2023-04-24T13:43:35.083Z,9.77
2023-04-24T13:46:04.161Z,6.20
2023-04-24T13:48:31.525Z,7.53
2023-04-24T13:51:00.656Z,6.73
2023-04-24T13:53:27.347Z,9.83
2023-04-24T13:55:54.049Z,6.80
2023-04-24T13:58:21.702Z,5.80
2023-04-24T14:00:50.433Z,5.67
2023-04-24T14:03:17.783Z,5.90
2023-04-24T14:05:47.000Z,4.73
2023-04-24T14:08:13.787Z,5.47
2023-04-24T14:10:40.728Z,4.00
2023-04-24T14:13:07.504Z,6.13
2023-04-24T14:15:34.531Z,9.60
2023-04-24T14:18:02.109Z,11.93
2023-04-24T14:20:29.568Z,4.73
2023-04-24T14:22:56.228Z,4.50
2023-04-24T14:25:23.649Z,4.17
2023-04-24T14:27:50.567Z,3.40
2023-04-24T14:30:17.271Z,4.30
2023-04-24T14:32:44.113Z,4.70
2023-04-24T14:35:10.870Z,4.00
2023-04-24T14:37:37.634Z,4.17
2023-04-24T14:42:38.377Z,4.50
2023-04-24T14:45:05.543Z,4.30
2023-04-24T14:47:34.358Z,4.87
2023-04-24T14:50:01.030Z,4.60
2023-04-24T14:52:27.649Z,4.53
2023-04-24T14:54:54.203Z,4.70
2023-04-24T14:57:20.824Z,4.60
2023-04-24T14:59:47.516Z,5.20
2023-04-24T15:02:16.675Z,4.07
2023-04-24T15:04:44.871Z,3.70
2023-04-24T15:07:11.875Z,4.63
2023-04-24T15:09:39.081Z,4.00
2023-04-24T15:12:05.675Z,4.30
2023-04-24T15:14:32.363Z,4.47
2023-04-24T15:16:59.083Z,4.70
2023-04-24T15:19:25.705Z,4.70
2023-04-24T15:21:52.355Z,3.10
2023-04-24T15:24:18.948Z,4.23
2023-04-24T15:26:45.569Z,3.30
2023-04-24T15:29:12.396Z,3.10
2023-04-24T15:31:41.098Z,3.43
2023-04-24T15:34:08.025Z,4.10
2023-04-24T15:36:34.697Z,3.80
2023-04-24T15:39:05.670Z,4.13
2023-04-24T15:41:33.765Z,3.23
2023-04-24T15:44:00.283Z,4.30
2023-04-24T15:46:27.070Z,3.90
2023-04-24T15:48:54.117Z,3.63
2023-04-24T15:51:20.915Z,3.60
2023-04-24T15:53:47.702Z,3.53
2023-04-24T15:56:14.508Z,3.40
2023-04-24T15:58:41.380Z,3.90
2023-04-24T16:01:08.098Z,3.70
2023-04-24T16:03:35.206Z,3.67
2023-04-24T16:06:01.794Z,3.40
2023-04-24T16:08:28.328Z,3.70
2023-04-24T16:10:54.969Z,3.37
2023-04-24T16:13:21.786Z,3.27
2023-04-24T16:15:48.432Z,3.10
2023-04-24T16:18:15.088Z,3.10
2023-04-24T16:20:41.850Z,3.20
2023-04-24T16:23:08.444Z,4.30
2023-04-24T16:25:35.108Z,4.13
2023-04-24T16:28:01.676Z,3.33
2023-04-24T16:30:28.287Z,2.90
2023-04-24T16:32:54.971Z,6.20
2023-04-24T16:35:21.623Z,4.00
2023-04-24T16:37:48.359Z,3.50
2023-04-24T16:40:15.004Z,4.30
2023-04-24T16:42:41.815Z,3.67
2023-04-24T16:45:08.885Z,3.10
2023-04-24T16:47:35.976Z,3.23
2023-04-24T16:50:02.837Z,3.17
2023-04-24T16:52:29.982Z,2.33
2023-04-24T16:54:56.616Z,5.03
2023-04-24T16:57:23.514Z,3.67
2023-04-24T16:59:50.169Z,3.83
2023-04-24T17:02:16.847Z,5.20
2023-04-24T17:04:43.524Z,3.20
2023-04-24T17:07:10.299Z,3.23
2023-04-24T17:09:36.921Z,4.30
2023-04-24T17:12:04.042Z,3.60
2023-04-24T17:14:30.712Z,3.30
2023-04-24T17:16:57.302Z,2.53
2023-04-24T17:19:24.042Z,3.40
2023-04-24T17:21:50.636Z,2.83
2023-04-24T17:24:17.602Z,3.20
2023-04-24T17:26:44.379Z,3.20
2023-04-24T17:29:12.479Z,2.60
2023-04-24T17:31:40.063Z,3.13
2023-04-24T17:34:07.909Z,3.27
2023-04-24T17:36:34.760Z,2.60
2023-04-24T17:39:01.550Z,2.80
2023-04-24T17:41:28.133Z,3.30
2023-04-24T17:43:55.008Z,4.00
2023-04-24T17:46:21.810Z,4.73
2023-04-24T17:48:49.601Z,4.00
2023-04-24T17:51:16.488Z,3.80
2023-04-24T17:53:43.063Z,3.47
2023-04-24T17:56:09.680Z,4.77
2023-04-24T17:58:36.365Z,4.97
2023-04-24T18:01:03.446Z,5.07
2023-04-24T18:03:30.638Z,3.20
2023-04-24T18:05:57.427Z,3.30
2023-04-24T18:08:24.081Z,4.83
2023-04-24T18:10:50.935Z,4.20
2023-04-24T18:13:17.761Z,4.20
2023-04-24T18:15:44.531Z,7.73
2023-04-24T18:18:11.690Z,20.43
2023-04-24T18:20:38.903Z,12.03
2023-04-24T18:23:05.704Z,27.63
2023-04-24T18:25:32.542Z,12.20
2023-04-24T18:27:59.099Z,6.37
2023-04-24T18:30:26.190Z,5.93
2023-04-24T18:32:53.706Z,6.70
2023-04-24T18:35:21.292Z,4.80
2023-04-24T18:37:47.939Z,6.60
2023-04-24T18:40:14.787Z,5.93
2023-04-24T18:42:42.660Z,5.10
2023-04-24T18:45:10.474Z,5.43
2023-04-24T18:47:37.931Z,5.00
2023-04-24T18:50:04.908Z,7.83
2023-04-24T18:52:32.065Z,10.87
2023-04-24T18:54:58.716Z,11.13
2023-04-24T18:57:25.345Z,6.17
2023-04-24T18:59:51.938Z,13.03
2023-04-24T19:02:18.637Z,8.50
2023-04-24T19:04:45.360Z,10.40
2023-04-24T19:07:12.332Z,22.87
2023-04-24T19:09:38.818Z,42.00
2023-04-24T19:12:06.629Z,46.00
2023-04-24T19:14:33.816Z,10.53
2023-04-24T19:17:00.742Z,12.10
2023-04-24T19:19:28.725Z,6.50
2023-04-24T19:21:55.572Z,6.53
2023-04-24T19:24:22.213Z,6.47
2023-04-24T19:26:48.909Z,7.67
2023-04-24T19:29:15.796Z,6.17
2023-04-24T19:31:42.429Z,6.50
2023-04-24T19:34:09.154Z,5.20
2023-04-24T19:36:36.619Z,4.30
2023-04-24T19:39:04.294Z,5.20
2023-04-24T19:41:30.945Z,5.93
2023-04-24T19:43:57.701Z,5.20
2023-04-24T19:46:24.604Z,6.30
2023-04-24T19:48:51.935Z,6.07
2023-04-24T19:51:18.950Z,5.53
2023-04-24T19:53:46.221Z,5.57
2023-04-24T19:56:12.891Z,5.30
2023-04-24T19:58:39.795Z,4.90
2023-04-24T20:01:06.518Z,5.23
2023-04-24T20:03:34.310Z,5.43
2023-04-24T20:06:01.795Z,6.10
2023-04-24T20:08:28.406Z,5.53
2023-04-24T20:10:57.848Z,5.77
2023-04-24T20:13:25.332Z,5.10
2023-04-24T20:15:52.549Z,5.73
2023-04-24T20:18:19.640Z,5.03
2023-04-24T20:20:46.577Z,5.43
2023-04-24T20:23:13.153Z,6.90
2023-04-24T20:25:39.686Z,8.40
2023-04-24T20:28:06.278Z,6.73
2023-04-24T20:30:32.863Z,7.97
2023-04-24T20:32:59.359Z,8.30
2023-04-24T20:35:25.965Z,7.47
2023-04-24T20:37:53.793Z,8.53
2023-04-24T20:40:20.746Z,7.07
2023-04-24T20:42:47.427Z,5.73
2023-04-24T20:45:14.120Z,6.13
2023-04-24T20:47:40.686Z,5.47
2023-04-24T20:50:07.460Z,6.87
2023-04-24T20:52:34.068Z,5.17
2023-04-24T20:55:00.712Z,4.70
2023-04-24T20:57:28.755Z,6.20
2023-04-24T20:59:55.339Z,4.83
2023-04-24T21:02:21.976Z,6.67
2023-04-24T21:04:48.562Z,5.43
2023-04-24T21:07:15.698Z,5.50
2023-04-24T21:09:42.305Z,5.20
2023-04-24T21:12:08.838Z,6.20
2023-04-24T21:14:35.604Z,6.60
2023-04-24T21:17:03.140Z,6.73
2023-04-24T21:19:29.760Z,6.90
2023-04-24T21:21:56.349Z,6.07
2023-04-24T21:24:22.906Z,5.60
2023-04-24T21:26:49.646Z,6.10
2023-04-24T21:29:16.268Z,8.50
2023-04-24T21:31:42.891Z,6.77
2023-04-24T21:34:09.498Z,6.67
2023-04-24T21:36:36.049Z,6.00
2023-04-24T21:39:02.547Z,5.30
2023-04-24T21:41:29.008Z,7.73
2023-04-24T21:43:55.807Z,6.87
2023-04-24T21:46:22.790Z,7.67
2023-04-24T21:48:49.383Z,6.90
2023-04-24T21:51:16.681Z,5.87
2023-04-24T21:53:43.502Z,4.83
2023-04-24T21:56:10.149Z,5.80
2023-04-24T21:58:36.848Z,6.13
2023-04-24T22:01:03.759Z,5.87
2023-04-24T22:03:30.557Z,5.80
2023-04-24T22:05:57.133Z,5.93
2023-04-24T22:08:24.797Z,6.10
2023-04-24T22:10:51.460Z,6.30
2023-04-24T22:13:17.938Z,6.77
2023-04-24T22:15:44.445Z,4.63
2023-04-24T22:18:12.611Z,6.70
2023-04-24T22:20:39.799Z,5.80
2023-04-24T22:23:06.260Z,4.80
2023-04-24T22:25:32.867Z,5.80
2023-04-24T22:27:59.374Z,6.53
2023-04-24T22:30:25.918Z,5.83
2023-04-24T22:32:52.566Z,5.10
2023-04-24T22:35:20.532Z,5.73
2023-04-24T22:37:48.847Z,5.00
2023-04-24T22:40:15.809Z,5.70
2023-04-24T22:42:42.298Z,7.63
2023-04-24T22:45:11.507Z,5.67
2023-04-24T22:47:38.111Z,6.50
2023-04-24T22:50:05.969Z,5.10
2023-04-24T22:52:32.596Z,5.23
2023-04-24T22:54:59.155Z,6.57
2023-04-24T22:57:25.723Z,6.53
2023-04-24T22:59:53.602Z,5.53
2023-04-24T23:02:20.198Z,6.83
2023-04-24T23:04:46.808Z,5.90
2023-04-24T23:07:13.563Z,5.60
2023-04-24T23:09:40.130Z,6.20
2023-04-24T23:12:07.009Z,5.70
2023-04-24T23:14:34.273Z,8.40
2023-04-24T23:17:01.225Z,5.90
2023-04-24T23:19:28.153Z,5.47
2023-04-24T23:21:54.744Z,6.47
2023-04-24T23:24:21.297Z,6.30
2023-04-24T23:26:47.834Z,6.27
2023-04-24T23:29:14.353Z,7.17
2023-04-24T23:31:40.966Z,6.47
2023-04-24T23:34:07.415Z,6.20
2023-04-24T23:36:33.956Z,6.43
2023-04-24T23:39:01.114Z,6.63
2023-04-24T23:41:27.656Z,7.37
2023-04-24T23:43:54.336Z,6.53
2023-04-24T23:46:21.528Z,6.10
2023-04-24T23:48:48.046Z,7.07
2023-04-24T23:51:14.637Z,7.77
2023-04-24T23:53:41.392Z,6.47
2023-04-24T23:56:08.045Z,6.90
2023-04-24T23:58:35.156Z,7.10
